Terminal Aerodrome Forecast
Issued by NWS

Home | Current Version | Previous Version | Graphics & Text | Print | Product List | Glossary Off
Versions: 1 2 3 4 5 6 7 8 9 10 11 12 13 14 15 16 17 18 19 20

000
FTUS43 KDDC 141732 AAA
TAFGCK
TAF AMD
KGCK 141732Z 1418/1518 28011KT P6SM FEW250
     FM142100 32020KT P6SM FEW250
     FM142300 33026G35KT P6SM FEW250
     FM150400 35019G27KT P6SM SKC
     FM150900 34009KT P6SM SKC=

USA.gov is the U.S. government's official web portal to all federal, state and local government web resources and services.